Galena, Ohio
Current Conditions -  °F | °C
As of 5:17 PM on Thursday 23 Oct 2014 (Local Time) from KDLZ Reporting Station
Clear Clear  
Wind Chill: 55°   Ceiling: Unl
Heat Index: 55°   Visibility: 10mi
Dew Point: 37°   Wind: 3mph
Humidity: 51%   Direction: 290°WNW
Pressure: 30.14"   Gusts: NA
Location:  40.22°N, 82.88°W
Report Text: KDLZ 232117Z AUTO 29003KT 10SM CLR 13/03 A3014 RMK AO2
Loading
Personal Weather Stations






























Interactive Weather Map
Tropical Storm Tracking
New forecast layout! Learn more

10-Day Weather Forecast

Advertisements
Track Severe Weather on mobile